createdAt,value
2022-11-20T00:01:26.159Z,-2.43
2022-11-20T00:03:55.459Z,-2.38
2022-11-20T00:06:24.455Z,-2.33
2022-11-20T00:08:54.606Z,-2.28
2022-11-20T00:11:24.514Z,-2.28
2022-11-20T00:13:55.015Z,-2.27
2022-11-20T00:16:24.842Z,-2.28
2022-11-20T00:18:53.519Z,-2.28
2022-11-20T00:21:23.964Z,-2.27
2022-11-20T00:23:55.156Z,-2.29
2022-11-20T00:26:24.910Z,-2.33
2022-11-20T00:28:58.068Z,-2.31
2022-11-20T00:31:26.677Z,-2.24
2022-11-20T00:33:54.413Z,-2.21
2022-11-20T00:36:24.626Z,-2.18
2022-11-20T00:38:53.417Z,-2.18
2022-11-20T00:41:21.809Z,-2.20
2022-11-20T00:43:49.598Z,-2.19
2022-11-20T00:46:20.103Z,-2.22
2022-11-20T00:48:47.975Z,-2.24
2022-11-20T00:51:18.497Z,-2.28
2022-11-20T00:53:47.095Z,-2.29
2022-11-20T00:56:18.108Z,-2.28
2022-11-20T00:58:48.137Z,-2.27
2022-11-20T01:01:19.088Z,-2.25
2022-11-20T01:03:49.227Z,-2.26
2022-11-20T01:06:40.325Z,-2.26
2022-11-20T01:09:12.571Z,-2.30
2022-11-20T01:11:43.288Z,-2.32
2022-11-20T01:14:16.953Z,-2.34
2022-11-20T01:16:50.737Z,-2.34
2022-11-20T01:19:20.654Z,-2.29
2022-11-20T01:21:51.890Z,-2.30
2022-11-20T01:24:21.185Z,-2.28
2022-11-20T01:26:51.016Z,-2.24
2022-11-20T01:29:22.445Z,-2.22
2022-11-20T01:31:50.853Z,-2.21
2022-11-20T01:34:20.745Z,-2.20
2022-11-20T01:36:49.104Z,-2.23
2022-11-20T01:39:20.065Z,-2.26
2022-11-20T01:42:09.405Z,-2.26
2022-11-20T01:44:49.854Z,-2.26
2022-11-20T01:47:24.991Z,-2.27
2022-11-20T01:50:01.988Z,-2.26
2022-11-20T01:52:39.323Z,-2.27
2022-11-20T01:55:14.057Z,-2.29
2022-11-20T01:57:42.635Z,-2.29
2022-11-20T02:00:15.167Z,-2.28
2022-11-20T02:03:07.349Z,-2.29
2022-11-20T02:05:42.941Z,-2.28
2022-11-20T02:08:10.634Z,-2.26
2022-11-20T02:10:38.453Z,-2.29
2022-11-20T02:13:21.544Z,-2.32
2022-11-20T02:15:50.047Z,-2.38
2022-11-20T02:18:20.467Z,-2.44
2022-11-20T02:20:52.156Z,-2.49
2022-11-20T02:23:40.401Z,-2.53
2022-11-20T02:26:13.254Z,-2.55
2022-11-20T02:28:40.955Z,-2.57
2022-11-20T02:31:08.621Z,-2.59
2022-11-20T02:33:36.197Z,-2.59
2022-11-20T02:36:04.354Z,-2.60
2022-11-20T02:38:32.490Z,-2.60
2022-11-20T02:41:00.086Z,-2.57
2022-11-20T02:43:27.685Z,-2.50
2022-11-20T02:45:55.357Z,-2.43
2022-11-20T02:48:25.228Z,-2.38
2022-11-20T02:50:53.268Z,-2.36
2022-11-20T02:53:20.913Z,-2.32
2022-11-20T02:55:48.539Z,-2.28
2022-11-20T02:58:16.156Z,-2.28
2022-11-20T03:00:43.774Z,-2.31
2022-11-20T03:03:11.424Z,-2.36
2022-11-20T03:05:39.029Z,-2.39
2022-11-20T03:08:06.832Z,-2.41
2022-11-20T03:10:34.445Z,-2.40
2022-11-20T03:13:02.045Z,-2.41
2022-11-20T03:15:31.539Z,-2.46
2022-11-20T03:17:59.153Z,-2.48
2022-11-20T03:20:26.756Z,-2.49
2022-11-20T03:22:55.210Z,-2.51
2022-11-20T03:25:23.240Z,-2.53
2022-11-20T03:27:50.857Z,-2.54
2022-11-20T03:30:18.470Z,-2.54
2022-11-20T03:32:46.704Z,-2.54
2022-11-20T03:35:14.443Z,-2.52
2022-11-20T03:37:42.047Z,-2.52
2022-11-20T03:40:10.312Z,-2.49
2022-11-20T03:42:53.952Z,-2.48
2022-11-20T03:45:21.571Z,-2.50
2022-11-20T03:47:49.261Z,-2.50
2022-11-20T03:50:17.021Z,-2.50
2022-11-20T03:52:45.838Z,-2.51
2022-11-20T03:55:13.587Z,-2.50
2022-11-20T03:57:41.243Z,-2.54
2022-11-20T04:00:09.536Z,-2.55
2022-11-20T04:02:37.187Z,-2.57
2022-11-20T04:05:05.384Z,-2.56
2022-11-20T04:07:34.980Z,-2.53
2022-11-20T04:10:02.919Z,-2.50
2022-11-20T04:12:33.559Z,-2.47
2022-11-20T04:15:01.751Z,-2.47
2022-11-20T04:17:29.343Z,-2.53
2022-11-20T04:19:56.953Z,-2.60
2022-11-20T04:22:24.581Z,-2.62
2022-11-20T04:24:52.907Z,-2.63
2022-11-20T04:27:21.349Z,-2.67
2022-11-20T04:29:49.009Z,-2.72
2022-11-20T04:32:16.720Z,-2.76
2022-11-20T04:34:44.313Z,-2.76
2022-11-20T04:37:11.908Z,-2.75
2022-11-20T04:39:39.732Z,-2.76
2022-11-20T04:42:26.353Z,-2.78
2022-11-20T04:44:54.307Z,-2.75
2022-11-20T04:47:22.399Z,-2.71
2022-11-20T04:49:50.112Z,-2.68
2022-11-20T04:52:17.868Z,-2.67
2022-11-20T04:54:45.587Z,-2.66
2022-11-20T04:57:14.966Z,-2.64
2022-11-20T04:59:42.945Z,-2.64
2022-11-20T05:02:11.945Z,-2.67
2022-11-20T05:04:39.576Z,-2.68
2022-11-20T05:07:07.228Z,-2.72
2022-11-20T05:09:34.896Z,-2.74
2022-11-20T05:12:02.513Z,-2.73
2022-11-20T05:14:30.204Z,-2.72
2022-11-20T05:16:58.043Z,-2.73
2022-11-20T05:19:25.691Z,-2.74
2022-11-20T05:21:53.313Z,-2.73
2022-11-20T05:24:21.026Z,-2.72
2022-11-20T05:26:48.645Z,-2.71
2022-11-20T05:29:16.233Z,-2.71
2022-11-20T05:31:43.832Z,-2.70
2022-11-20T05:34:11.780Z,-2.71
2022-11-20T05:36:39.373Z,-2.71
2022-11-20T05:39:07.033Z,-2.69
2022-11-20T05:41:34.670Z,-2.69
2022-11-20T05:44:02.365Z,-2.67
2022-11-20T05:46:30.125Z,-2.64
2022-11-20T05:48:59.052Z,-2.63
2022-11-20T05:51:27.908Z,-2.63
2022-11-20T05:53:58.291Z,-2.66
2022-11-20T05:56:26.055Z,-2.65
2022-11-20T05:58:53.756Z,-2.65
2022-11-20T06:01:24.344Z,-2.64
2022-11-20T06:03:53.961Z,-2.65
2022-11-20T06:06:22.352Z,-2.65
2022-11-20T06:08:50.057Z,-2.63
2022-11-20T06:11:18.703Z,-2.62
2022-11-20T06:13:47.554Z,-2.61
2022-11-20T06:16:17.484Z,-2.58
2022-11-20T06:18:46.299Z,-2.54
2022-11-20T06:21:19.506Z,-2.54
2022-11-20T06:23:48.346Z,-2.58
2022-11-20T06:26:28.022Z,-2.59
2022-11-20T06:28:57.024Z,-2.58
2022-11-20T06:31:26.369Z,-2.57
2022-11-20T06:33:54.487Z,-2.57
2022-11-20T06:36:23.820Z,-2.54
2022-11-20T06:38:51.713Z,-2.50
2022-11-20T06:41:21.720Z,-2.47
2022-11-20T06:43:49.759Z,-2.46
2022-11-20T06:46:19.579Z,-2.42
2022-11-20T06:48:48.564Z,-2.42
2022-11-20T06:51:16.870Z,-2.42
2022-11-20T06:53:44.541Z,-2.43
2022-11-20T06:56:12.199Z,-2.43
2022-11-20T06:58:40.181Z,-2.43
2022-11-20T07:01:12.432Z,-2.40
2022-11-20T07:03:41.121Z,-2.41
2022-11-20T07:06:09.774Z,-2.41
2022-11-20T07:08:37.986Z,-2.41
2022-11-20T07:11:07.754Z,-2.37
2022-11-20T07:13:35.746Z,-2.36
2022-11-20T07:16:06.475Z,-2.36
2022-11-20T07:18:34.695Z,-2.35
2022-11-20T07:21:04.066Z,-2.33
2022-11-20T07:23:32.164Z,-2.29
2022-11-20T07:26:05.057Z,-2.27
2022-11-20T07:28:33.094Z,-2.26
2022-11-20T07:31:00.817Z,-2.25
2022-11-20T07:33:28.826Z,-2.21
2022-11-20T07:35:56.454Z,-2.13
2022-11-20T07:38:24.086Z,-2.06
2022-11-20T07:40:56.544Z,-2.01
2022-11-20T07:43:25.040Z,-1.97
2022-11-20T07:45:52.775Z,-1.93
2022-11-20T07:48:20.426Z,-1.92
2022-11-20T07:50:48.040Z,-1.89
2022-11-20T07:53:21.492Z,-1.86
2022-11-20T07:55:49.392Z,-1.82
2022-11-20T07:58:16.980Z,-1.78
2022-11-20T08:00:44.714Z,-1.72
2022-11-20T08:03:12.491Z,-1.66
2022-11-20T08:05:40.086Z,-1.62
2022-11-20T08:08:08.598Z,-1.57
2022-11-20T08:10:36.224Z,-1.50
2022-11-20T08:13:19.896Z,-1.45
2022-11-20T08:15:54.395Z,-1.38
2022-11-20T08:18:37.449Z,-1.32
2022-11-20T08:21:05.910Z,-1.26
2022-11-20T08:23:33.723Z,-1.24
2022-11-20T08:26:01.349Z,-1.23
2022-11-20T08:28:29.232Z,-1.19
2022-11-20T08:31:04.228Z,-1.16
2022-11-20T08:33:33.572Z,-1.15
2022-11-20T08:36:05.325Z,-1.12
2022-11-20T08:38:33.801Z,-1.09
2022-11-20T08:41:19.588Z,-1.07
2022-11-20T08:43:47.465Z,-1.10
2022-11-20T08:46:15.424Z,-1.11
2022-11-20T08:48:43.297Z,-1.13
2022-11-20T08:51:12.186Z,-1.11
2022-11-20T08:53:40.447Z,-1.10
2022-11-20T08:56:08.597Z,-1.03
2022-11-20T08:59:01.776Z,-0.98
2022-11-20T09:01:24.821Z,-0.90
2022-11-20T09:03:52.957Z,-0.90
2022-11-20T09:06:20.564Z,-0.90
2022-11-20T09:08:48.205Z,-0.89
2022-11-20T09:11:15.838Z,-0.91
2022-11-20T09:13:43.481Z,-0.91
2022-11-20T09:16:11.473Z,-0.88
2022-11-20T09:18:39.524Z,-0.80
2022-11-20T09:21:14.547Z,-0.70
2022-11-20T09:23:42.215Z,-0.67
2022-11-20T09:26:12.234Z,-0.67
2022-11-20T09:28:40.426Z,-0.65
2022-11-20T09:31:27.131Z,-0.66
2022-11-20T09:33:54.795Z,-0.63
2022-11-20T09:36:22.441Z,-0.60
2022-11-20T09:38:50.084Z,-0.53
2022-11-20T09:41:48.701Z,-0.46
2022-11-20T09:44:48.304Z,-0.45
2022-11-20T09:47:44.449Z,-0.50
2022-11-20T09:50:38.257Z,-0.51
2022-11-20T09:53:38.731Z,-0.49
2022-11-20T09:56:11.092Z,-0.45
2022-11-20T09:58:45.958Z,-0.42
2022-11-20T10:01:17.386Z,-0.37
2022-11-20T10:04:05.551Z,-0.35
2022-11-20T10:06:42.828Z,-0.35
2022-11-20T10:09:13.458Z,-0.37
2022-11-20T10:12:03.528Z,-0.34
2022-11-20T10:14:46.989Z,-0.22
2022-11-20T10:17:25.138Z,-0.13
2022-11-20T10:20:10.185Z,-0.09
2022-11-20T10:23:03.860Z,-0.06
2022-11-20T10:25:47.444Z,0.00
2022-11-20T10:28:31.003Z,0.05
2022-11-20T10:31:05.904Z,0.07
2022-11-20T10:34:10.526Z,0.12
2022-11-20T10:36:39.514Z,0.11
2022-11-20T10:39:36.155Z,0.05
2022-11-20T10:42:08.904Z,0.02
2022-11-20T10:44:56.564Z,0.04
2022-11-20T10:47:28.091Z,0.13
2022-11-20T10:49:59.141Z,0.16
2022-11-20T10:52:50.851Z,0.17
2022-11-20T10:55:34.015Z,0.17
2022-11-20T10:58:11.776Z,0.20
2022-11-20T11:00:39.497Z,0.23
2022-11-20T11:03:30.406Z,0.21
2022-11-20T11:06:18.356Z,0.14
2022-11-20T11:08:50.474Z,0.09
2022-11-20T11:11:31.054Z,0.08
2022-11-20T11:14:06.572Z,0.03
2022-11-20T11:16:34.488Z,-0.02
2022-11-20T11:19:20.724Z,-0.04
2022-11-20T11:21:55.664Z,-0.10
2022-11-20T11:24:45.988Z,-0.14
2022-11-20T11:27:18.385Z,-0.15
2022-11-20T11:29:47.136Z,-0.14
2022-11-20T11:32:19.333Z,-0.15
2022-11-20T11:35:03.880Z,-0.18
2022-11-20T11:37:38.384Z,-0.21
2022-11-20T11:40:26.436Z,-0.22
2022-11-20T11:42:58.839Z,-0.24
2022-11-20T11:45:27.195Z,-0.24
2022-11-20T11:47:57.800Z,-0.24
2022-11-20T11:50:27.656Z,-0.23
2022-11-20T11:53:16.505Z,-0.22
2022-11-20T11:55:49.823Z,-0.21
2022-11-20T11:58:26.197Z,-0.17
2022-11-20T12:01:09.762Z,-0.16
2022-11-20T12:03:42.192Z,-0.18
2022-11-20T12:06:16.171Z,-0.18
2022-11-20T12:09:09.088Z,-0.18
2022-11-20T12:11:59.999Z,-0.20
2022-11-20T12:14:46.734Z,-0.16
2022-11-20T12:17:15.140Z,-0.11
2022-11-20T12:19:42.926Z,-0.07
2022-11-20T12:22:57.776Z,-0.05
2022-11-20T12:25:27.978Z,-0.02
2022-11-20T12:27:58.501Z,0.03
2022-11-20T12:30:26.804Z,0.09
2022-11-20T12:33:13.046Z,0.10
2022-11-20T12:35:59.729Z,0.15
2022-11-20T12:38:39.407Z,0.17
2022-11-20T12:41:38.440Z,0.14
2022-11-20T12:44:51.886Z,0.12
2022-11-20T12:47:38.299Z,0.08
2022-11-20T12:50:11.985Z,0.07
2022-11-20T12:52:58.706Z,0.06
2022-11-20T12:56:08.642Z,0.06
2022-11-20T12:58:44.890Z,0.06
2022-11-20T13:01:44.342Z,0.04
2022-11-20T13:04:25.226Z,0.00
2022-11-20T13:06:53.330Z,-0.02
2022-11-20T13:09:23.706Z,-0.06
2022-11-20T13:12:23.300Z,-0.06
2022-11-20T13:14:58.030Z,-0.04
2022-11-20T13:17:35.628Z,-0.04
2022-11-20T13:20:06.712Z,-0.04
2022-11-20T13:23:01.273Z,-0.03
2022-11-20T13:25:30.688Z,-0.02
2022-11-20T13:28:01.553Z,-0.05
2022-11-20T13:30:31.130Z,-0.05
2022-11-20T13:33:09.438Z,-0.04
2022-11-20T13:35:42.076Z,-0.05
2022-11-20T13:38:15.514Z,-0.07
2022-11-20T13:41:24.761Z,-0.05
2022-11-20T13:43:53.551Z,-0.06
2022-11-20T13:46:25.424Z,-0.08
2022-11-20T13:48:55.219Z,-0.06
2022-11-20T13:51:47.088Z,-0.10
2022-11-20T13:54:44.738Z,-0.19
2022-11-20T13:57:34.284Z,-0.23
2022-11-20T14:00:19.574Z,-0.27
2022-11-20T14:03:03.128Z,-0.29
2022-11-20T14:05:35.803Z,-0.30
2022-11-20T14:08:13.583Z,-0.34
2022-11-20T14:10:41.209Z,-0.38
2022-11-20T14:13:24.772Z,-0.43
2022-11-20T14:15:58.389Z,-0.46
2022-11-20T14:18:28.202Z,-0.46
2022-11-20T14:20:55.917Z,-0.45
2022-11-20T14:23:30.278Z,-0.45
2022-11-20T14:25:58.210Z,-0.43
2022-11-20T14:28:29.000Z,-0.42
2022-11-20T14:30:57.824Z,-0.42
2022-11-20T14:33:27.827Z,-0.44
2022-11-20T14:35:58.336Z,-0.45
2022-11-20T14:38:28.653Z,-0.45
2022-11-20T14:41:10.355Z,-0.48
2022-11-20T14:43:38.780Z,-0.49
2022-11-20T14:46:09.869Z,-0.51
2022-11-20T14:48:46.478Z,-0.52
2022-11-20T14:51:42.061Z,-0.51
2022-11-20T14:54:17.026Z,-0.52
2022-11-20T14:57:03.517Z,-0.51
2022-11-20T14:59:35.275Z,-0.51
2022-11-20T15:02:06.345Z,-0.52
2022-11-20T15:04:34.049Z,-0.53
2022-11-20T15:07:01.743Z,-0.54
2022-11-20T15:09:29.453Z,-0.57
2022-11-20T15:12:00.138Z,-0.60
2022-11-20T15:14:30.791Z,-0.61
2022-11-20T15:16:58.474Z,-0.64
2022-11-20T15:19:27.940Z,-0.67
2022-11-20T15:21:55.803Z,-0.69
2022-11-20T15:24:23.708Z,-0.71
2022-11-20T15:26:51.523Z,-0.73
2022-11-20T15:29:20.126Z,-0.75
2022-11-20T15:31:47.795Z,-0.76
2022-11-20T15:34:16.520Z,-0.78
2022-11-20T15:36:44.860Z,-0.79
2022-11-20T15:39:12.667Z,-0.80
2022-11-20T15:41:40.688Z,-0.80
2022-11-20T15:44:08.554Z,-0.82
2022-11-20T15:46:40.933Z,-0.84
2022-11-20T15:49:19.479Z,-0.85
2022-11-20T15:51:51.316Z,-0.85
2022-11-20T15:54:23.215Z,-0.89
2022-11-20T15:56:54.111Z,-0.91
2022-11-20T15:59:21.764Z,-0.94
2022-11-20T16:01:49.902Z,-0.96
2022-11-20T16:04:19.462Z,-0.96
2022-11-20T16:06:47.084Z,-0.97
2022-11-20T16:09:14.692Z,-0.99
2022-11-20T16:11:42.549Z,-1.01
2022-11-20T16:14:27.940Z,-1.04
2022-11-20T16:16:55.802Z,-1.07
2022-11-20T16:19:23.425Z,-1.10
2022-11-20T16:21:52.264Z,-1.12
2022-11-20T16:24:20.348Z,-1.12
2022-11-20T16:26:48.111Z,-1.12
2022-11-20T16:29:15.795Z,-1.10
2022-11-20T16:31:43.384Z,-1.10
2022-11-20T16:34:12.672Z,-1.09
2022-11-20T16:36:42.323Z,-1.07
2022-11-20T16:39:10.690Z,-1.07
2022-11-20T16:41:38.780Z,-1.06
2022-11-20T16:44:09.299Z,-1.03
2022-11-20T16:46:37.005Z,-1.01
2022-11-20T16:49:11.796Z,-1.01
2022-11-20T16:51:39.766Z,-0.99
2022-11-20T16:54:09.336Z,-1.00
2022-11-20T16:56:37.411Z,-1.02
2022-11-20T16:59:05.578Z,-1.03
2022-11-20T17:01:34.153Z,-1.03
2022-11-20T17:04:05.055Z,-1.03
2022-11-20T17:06:35.412Z,-1.03
2022-11-20T17:09:04.190Z,-1.01
2022-11-20T17:11:33.473Z,-1.00
2022-11-20T17:14:07.192Z,-1.01
2022-11-20T17:16:36.778Z,-1.01
2022-11-20T17:19:05.283Z,-1.00
2022-11-20T17:21:35.959Z,-0.98
2022-11-20T17:24:06.537Z,-0.96
2022-11-20T17:26:35.529Z,-0.96
2022-11-20T17:29:06.657Z,-0.94
2022-11-20T17:31:35.046Z,-0.93
2022-11-20T17:34:02.821Z,-0.90
2022-11-20T17:36:31.656Z,-0.86
2022-11-20T17:38:59.570Z,-0.82
2022-11-20T17:41:29.145Z,-0.79
2022-11-20T17:43:59.940Z,-0.78
2022-11-20T17:46:32.530Z,-0.80
2022-11-20T17:49:01.084Z,-0.81
2022-11-20T17:51:31.654Z,-0.82
2022-11-20T17:54:02.026Z,-0.82
2022-11-20T17:56:50.287Z,-0.80
2022-11-20T17:59:18.867Z,-0.81
2022-11-20T18:01:46.987Z,-0.81
2022-11-20T18:04:15.051Z,-0.81
2022-11-20T18:06:43.108Z,-0.80
2022-11-20T18:09:11.171Z,-0.80
2022-11-20T18:11:42.834Z,-0.79
2022-11-20T18:14:32.957Z,-0.79
2022-11-20T18:17:05.364Z,-0.77
2022-11-20T18:19:41.113Z,-0.73
2022-11-20T18:22:11.587Z,-0.69
2022-11-20T18:24:39.938Z,-0.66
2022-11-20T18:27:13.380Z,-0.64
2022-11-20T18:29:41.080Z,-0.62
2022-11-20T18:32:08.702Z,-0.57
2022-11-20T18:34:36.369Z,-0.54
2022-11-20T18:37:03.984Z,-0.53
2022-11-20T18:39:31.638Z,-0.49
2022-11-20T18:42:15.204Z,-0.50
2022-11-20T18:44:58.835Z,-0.52
2022-11-20T18:47:32.087Z,-0.55
2022-11-20T18:50:01.344Z,-0.56
2022-11-20T18:52:33.864Z,-0.58
2022-11-20T18:55:03.417Z,-0.58
2022-11-20T18:57:32.601Z,-0.56
2022-11-20T19:00:06.357Z,-0.58
2022-11-20T19:02:40.912Z,-0.61
2022-11-20T19:05:11.320Z,-0.61
2022-11-20T19:07:39.098Z,-0.57
2022-11-20T19:10:07.391Z,-0.51
2022-11-20T19:12:35.055Z,-0.49
2022-11-20T19:15:03.134Z,-0.46
2022-11-20T19:17:32.333Z,-0.46
2022-11-20T19:20:00.235Z,-0.47
2022-11-20T19:22:28.068Z,-0.46
2022-11-20T19:24:55.742Z,-0.42
2022-11-20T19:27:23.724Z,-0.44
2022-11-20T19:29:51.601Z,-0.47
2022-11-20T19:32:19.464Z,-0.50
2022-11-20T19:34:47.100Z,-0.52
2022-11-20T19:37:14.746Z,-0.53
2022-11-20T19:39:42.332Z,-0.56
2022-11-20T19:42:09.918Z,-0.63
2022-11-20T19:44:37.513Z,-0.66
2022-11-20T19:47:14.456Z,-0.71
2022-11-20T19:49:43.000Z,-0.72
2022-11-20T19:52:10.736Z,-0.70
2022-11-20T19:54:38.373Z,-0.65
2022-11-20T19:57:06.547Z,-0.59
2022-11-20T19:59:34.250Z,-0.52
2022-11-20T20:02:03.444Z,-0.46
2022-11-20T20:04:31.306Z,-0.43
2022-11-20T20:06:59.194Z,-0.42
2022-11-20T20:09:27.604Z,-0.44
2022-11-20T20:11:55.276Z,-0.46
2022-11-20T20:14:22.992Z,-0.46
2022-11-20T20:16:50.639Z,-0.47
2022-11-20T20:19:18.381Z,-0.44
2022-11-20T20:21:47.677Z,-0.44
2022-11-20T20:24:15.436Z,-0.47
2022-11-20T20:26:43.545Z,-0.48
2022-11-20T20:29:11.242Z,-0.46
2022-11-20T20:31:39.835Z,-0.47
2022-11-20T20:34:07.490Z,-0.48
2022-11-20T20:36:35.151Z,-0.46
2022-11-20T20:39:03.499Z,-0.40
2022-11-20T20:41:31.135Z,-0.37
2022-11-20T20:44:14.862Z,-0.41
2022-11-20T20:46:43.633Z,-0.47
2022-11-20T20:49:11.712Z,-0.47
2022-11-20T20:51:39.301Z,-0.46
2022-11-20T20:54:07.044Z,-0.56
2022-11-20T20:56:34.682Z,-0.71
2022-11-20T20:59:03.688Z,-0.84
2022-11-20T21:01:31.467Z,-0.89
2022-11-20T21:03:59.917Z,-0.88
2022-11-20T21:06:27.647Z,-0.87
2022-11-20T21:08:57.219Z,-0.88
2022-11-20T21:11:25.231Z,-0.92
2022-11-20T21:13:52.880Z,-0.95
2022-11-20T21:16:22.384Z,-0.96
2022-11-20T21:18:50.143Z,-0.99
2022-11-20T21:21:34.579Z,-1.00
2022-11-20T21:24:03.377Z,-1.06
2022-11-20T21:26:31.347Z,-1.10
2022-11-20T21:28:59.141Z,-1.15
2022-11-20T21:31:27.433Z,-1.18
2022-11-20T21:33:56.407Z,-1.24
2022-11-20T21:36:26.705Z,-1.26
2022-11-20T21:38:55.655Z,-1.28
2022-11-20T21:41:26.432Z,-1.32
2022-11-20T21:44:29.057Z,-1.35
2022-11-20T21:46:44.781Z,-1.42
2022-11-20T21:49:13.124Z,-1.46
2022-11-20T21:51:40.730Z,-1.55
2022-11-20T21:54:10.558Z,-1.64
2022-11-20T21:56:38.334Z,-1.72
2022-11-20T21:59:06.035Z,-1.80
2022-11-20T22:01:33.885Z,-1.92
2022-11-20T22:04:02.572Z,-2.04
2022-11-20T22:06:32.874Z,-2.13
2022-11-20T22:09:03.891Z,-2.19
2022-11-20T22:11:31.657Z,-2.30
2022-11-20T22:14:15.303Z,-2.39
2022-11-20T22:16:43.182Z,-2.50
2022-11-20T22:19:11.112Z,-2.60
2022-11-20T22:21:40.061Z,-2.70
2022-11-20T22:24:12.103Z,-2.80
2022-11-20T22:26:40.911Z,-2.90
2022-11-20T22:29:17.825Z,-2.98
2022-11-20T22:31:45.458Z,-3.00
2022-11-20T22:34:14.419Z,-2.99
2022-11-20T22:36:42.256Z,-2.99
2022-11-20T22:39:09.927Z,-2.96
2022-11-20T22:41:37.625Z,-2.96
2022-11-20T22:44:07.054Z,-2.96
2022-11-20T22:46:36.847Z,-2.97
2022-11-20T22:49:08.668Z,-2.97
2022-11-20T22:51:39.163Z,-2.96
2022-11-20T22:54:07.561Z,-2.94
2022-11-20T22:56:35.244Z,-2.94
2022-11-20T22:59:03.454Z,-2.91
2022-11-20T23:01:33.912Z,-2.88
2022-11-20T23:04:04.495Z,-2.86
2022-11-20T23:06:35.592Z,-2.85
2022-11-20T23:09:04.858Z,-2.80
2022-11-20T23:11:33.372Z,-2.78
2022-11-20T23:14:04.891Z,-2.79
2022-11-20T23:16:34.059Z,-2.80
2022-11-20T23:19:07.261Z,-2.82
2022-11-20T23:21:37.215Z,-2.89
2022-11-20T23:24:06.107Z,-2.97
2022-11-20T23:26:36.246Z,-3.05
2022-11-20T23:29:04.923Z,-3.15
2022-11-20T23:31:34.640Z,-3.27
2022-11-20T23:34:02.271Z,-3.40
2022-11-20T23:36:29.918Z,-3.50
2022-11-20T23:38:57.602Z,-3.61
2022-11-20T23:41:25.244Z,-3.73
2022-11-20T23:43:53.783Z,-3.83
2022-11-20T23:46:21.452Z,-3.93
2022-11-20T23:48:49.087Z,-4.02
2022-11-20T23:51:17.352Z,-4.09
2022-11-20T23:53:44.977Z,-4.16
2022-11-20T23:56:15.234Z,-4.25
2022-11-20T23:58:43.738Z,-4.33
